createdAt,value
2023-02-19T00:03:15.592Z,100.00
2023-02-19T00:08:18.467Z,100.00
2023-02-19T00:13:21.371Z,100.00
2023-02-19T00:18:24.684Z,100.00
2023-02-19T00:23:28.305Z,100.00
2023-02-19T00:28:31.214Z,100.00
2023-02-19T00:33:34.216Z,100.00
2023-02-19T00:38:38.962Z,100.00
2023-02-19T00:43:41.764Z,100.00
2023-02-19T00:48:44.981Z,100.00
2023-02-19T00:53:47.980Z,100.00
2023-02-19T00:58:51.009Z,100.00
2023-02-19T01:03:54.101Z,100.00
2023-02-19T01:08:56.998Z,100.00
2023-02-19T01:14:01.182Z,100.00
2023-02-19T01:19:04.243Z,100.00
2023-02-19T01:24:07.242Z,100.00
2023-02-19T01:29:10.515Z,100.00
2023-02-19T01:34:13.353Z,100.00
2023-02-19T01:39:16.265Z,100.00
2023-02-19T01:44:19.573Z,100.00
2023-02-19T01:49:26.267Z,100.00
2023-02-19T01:54:36.215Z,100.00
2023-02-19T01:59:40.020Z,100.00
2023-02-19T02:04:43.169Z,100.00
2023-02-19T02:10:04.708Z,100.00
2023-02-19T02:15:08.226Z,100.00
2023-02-19T02:20:35.710Z,100.00
2023-02-19T02:26:08.415Z,100.00
2023-02-19T02:31:16.755Z,100.00
2023-02-19T02:36:29.100Z,100.00
2023-02-19T02:41:33.617Z,100.00
2023-02-19T02:46:40.538Z,100.00
2023-02-19T02:51:53.138Z,100.00
2023-02-19T02:56:58.190Z,100.00
2023-02-19T03:02:12.136Z,100.00
2023-02-19T03:07:15.477Z,100.00
2023-02-19T03:12:39.465Z,100.00
2023-02-19T03:18:11.459Z,100.00
2023-02-19T03:23:17.632Z,100.00
2023-02-19T03:28:42.966Z,100.00
2023-02-19T03:33:50.576Z,100.00
2023-02-19T03:39:00.973Z,100.00
2023-02-19T03:44:16.863Z,100.00
2023-02-19T03:49:56.946Z,100.00
2023-02-19T03:55:02.812Z,100.00
2023-02-19T04:00:21.072Z,100.00
2023-02-19T04:05:28.176Z,100.00
2023-02-19T04:10:32.181Z,100.00
2023-02-19T04:15:40.491Z,100.00
2023-02-19T04:20:46.309Z,100.00
2023-02-19T04:25:53.624Z,100.00
2023-02-19T04:30:56.545Z,100.00
2023-02-19T04:35:59.423Z,100.00
2023-02-19T04:41:02.227Z,100.00
2023-02-19T04:46:05.371Z,100.00
2023-02-19T04:51:09.517Z,100.00
2023-02-19T04:56:16.152Z,100.00
2023-02-19T05:01:19.308Z,100.00
2023-02-19T05:06:22.164Z,100.00
2023-02-19T05:11:25.067Z,100.00
2023-02-19T05:16:28.074Z,100.00
2023-02-19T05:21:31.094Z,100.00
2023-02-19T05:26:34.534Z,100.00
2023-02-19T05:31:37.489Z,100.00
2023-02-19T05:36:40.607Z,100.00
2023-02-19T05:41:43.513Z,100.00
2023-02-19T05:46:46.346Z,100.00
2023-02-19T05:51:52.492Z,100.00
2023-02-19T05:56:55.804Z,100.00
2023-02-19T06:01:58.606Z,100.00
2023-02-19T06:07:01.408Z,100.00
2023-02-19T06:12:04.618Z,100.00
2023-02-19T06:17:07.301Z,100.00
2023-02-19T06:22:10.536Z,100.00
2023-02-19T06:27:13.330Z,100.00
2023-02-19T06:32:17.112Z,100.00
2023-02-19T06:37:20.062Z,100.00
2023-02-19T06:42:22.982Z,100.00
2023-02-19T06:47:25.870Z,100.00
2023-02-19T06:52:28.784Z,100.00
2023-02-19T06:57:31.882Z,100.00
2023-02-19T07:02:34.683Z,100.00
2023-02-19T07:07:37.584Z,100.00
2023-02-19T07:12:40.381Z,100.00
2023-02-19T07:17:43.287Z,100.00
2023-02-19T07:22:46.315Z,100.00
2023-02-19T07:27:49.195Z,100.00
2023-02-19T07:32:52.114Z,100.00
2023-02-19T07:37:54.971Z,100.00
2023-02-19T07:42:59.702Z,100.00
2023-02-19T07:48:02.759Z,100.00
2023-02-19T07:53:06.124Z,100.00
2023-02-19T07:58:08.873Z,100.00
2023-02-19T08:03:12.307Z,100.00
2023-02-19T08:08:16.011Z,100.00
2023-02-19T08:13:19.416Z,100.00
2023-02-19T08:18:23.762Z,100.00
2023-02-19T08:23:27.946Z,100.00
2023-02-19T08:28:31.207Z,100.00
2023-02-19T08:33:34.532Z,100.00
2023-02-19T08:38:38.096Z,100.00
2023-02-19T08:43:42.022Z,100.00
2023-02-19T08:48:44.969Z,100.00
2023-02-19T08:53:47.989Z,100.00
2023-02-19T08:58:50.881Z,100.00
2023-02-19T09:03:53.706Z,100.00
2023-02-19T09:08:56.582Z,100.00
2023-02-19T09:13:59.484Z,100.00
2023-02-19T09:19:03.058Z,100.00
2023-02-19T09:24:09.722Z,100.00
2023-02-19T09:29:12.609Z,100.00
2023-02-19T09:34:15.505Z,100.00
2023-02-19T09:39:19.234Z,100.00
2023-02-19T09:44:29.607Z,99.83
2023-02-19T09:49:35.900Z,98.89
2023-02-19T09:54:40.444Z,98.98
2023-02-19T09:59:54.276Z,98.20
2023-02-19T10:04:57.756Z,97.80
2023-02-19T10:10:18.888Z,98.49
2023-02-19T10:15:38.116Z,96.48
2023-02-19T10:20:41.129Z,96.13
2023-02-19T10:25:54.580Z,92.48
2023-02-19T10:30:59.966Z,90.48
2023-02-19T10:36:16.263Z,88.02
2023-02-19T10:41:22.031Z,87.22
2023-02-19T10:46:28.834Z,86.58
2023-02-19T10:51:35.423Z,84.13
2023-02-19T10:56:40.880Z,81.03
2023-02-19T11:02:00.526Z,79.88
2023-02-19T11:07:17.405Z,79.18
2023-02-19T11:12:29.822Z,75.55
2023-02-19T11:17:33.293Z,72.56
2023-02-19T11:22:39.930Z,72.57
2023-02-19T11:28:07.388Z,73.36
2023-02-19T11:33:16.256Z,72.68
2023-02-19T11:38:20.254Z,71.40
2023-02-19T11:43:44.908Z,70.92
2023-02-19T11:49:11.673Z,71.56
2023-02-19T11:54:36.391Z,70.25
2023-02-19T11:59:59.358Z,70.26
2023-02-19T12:05:22.014Z,70.03
2023-02-19T12:10:49.710Z,68.67
2023-02-19T12:16:10.749Z,68.35
2023-02-19T12:21:35.557Z,69.65
2023-02-19T12:26:46.893Z,69.56
2023-02-19T12:32:13.518Z,68.91
2023-02-19T12:37:30.962Z,68.29
2023-02-19T12:42:50.806Z,67.43
2023-02-19T12:48:05.442Z,65.34
2023-02-19T12:53:19.206Z,65.34
2023-02-19T12:58:39.826Z,66.58
2023-02-19T13:03:52.555Z,67.15
2023-02-19T13:09:29.406Z,67.69
2023-02-19T13:15:04.214Z,66.87
2023-02-19T13:20:22.274Z,67.73
2023-02-19T13:25:46.570Z,68.55
2023-02-19T13:31:02.962Z,68.82
2023-02-19T13:36:10.708Z,69.60
2023-02-19T13:41:21.807Z,68.65
2023-02-19T13:46:25.651Z,68.30
2023-02-19T13:51:28.433Z,68.73
2023-02-19T13:56:34.492Z,67.25
2023-02-19T14:02:03.534Z,68.04
2023-02-19T14:07:06.322Z,69.17
2023-02-19T14:12:16.072Z,68.45
2023-02-19T14:17:45.967Z,68.37
2023-02-19T14:23:01.579Z,69.08
2023-02-19T14:28:10.486Z,68.87
2023-02-19T14:33:17.450Z,68.73
2023-02-19T14:38:30.512Z,67.94
2023-02-19T14:43:35.405Z,66.70
2023-02-19T14:48:43.648Z,65.35
2023-02-19T14:53:47.028Z,66.43
2023-02-19T14:59:28.011Z,65.74
2023-02-19T15:04:37.233Z,67.29
2023-02-19T15:09:45.487Z,68.42
2023-02-19T15:14:49.750Z,69.25
2023-02-19T15:19:53.181Z,69.76
2023-02-19T15:24:56.086Z,69.89
2023-02-19T15:29:58.893Z,69.66
2023-02-19T15:35:04.317Z,68.78
2023-02-19T15:40:08.395Z,68.26
2023-02-19T15:45:28.653Z,68.40
2023-02-19T15:50:37.600Z,69.39
2023-02-19T15:55:51.810Z,70.21
2023-02-19T16:00:58.539Z,70.44
2023-02-19T16:06:11.504Z,70.68
2023-02-19T16:11:23.214Z,71.23
2023-02-19T16:16:35.360Z,71.53
2023-02-19T16:21:38.794Z,72.05
2023-02-19T16:26:43.067Z,72.78
2023-02-19T16:31:55.163Z,73.06
2023-02-19T16:36:58.091Z,73.77
2023-02-19T16:42:02.233Z,74.46
2023-02-19T16:47:12.541Z,75.21
2023-02-19T16:52:17.117Z,76.02
2023-02-19T16:57:20.736Z,77.50
2023-02-19T17:02:25.202Z,78.96
2023-02-19T17:07:28.211Z,80.03
2023-02-19T17:12:31.117Z,81.16
2023-02-19T17:17:34.875Z,81.90
2023-02-19T17:22:37.741Z,82.63
2023-02-19T17:27:41.470Z,83.13
2023-02-19T17:32:44.467Z,83.54
2023-02-19T17:37:47.476Z,83.86
2023-02-19T17:42:50.707Z,83.35
2023-02-19T17:47:53.502Z,81.93
2023-02-19T17:52:56.402Z,80.72
2023-02-19T17:58:00.050Z,79.38
2023-02-19T18:03:03.940Z,78.32
2023-02-19T18:08:07.250Z,77.63
2023-02-19T18:13:10.667Z,76.91
2023-02-19T18:18:13.491Z,76.80
2023-02-19T18:23:16.584Z,76.87
2023-02-19T18:28:19.376Z,77.17
2023-02-19T18:33:22.385Z,77.51
2023-02-19T18:38:25.288Z,78.23
2023-02-19T18:43:28.291Z,78.84
2023-02-19T18:48:31.060Z,79.53
2023-02-19T18:53:33.845Z,80.41
2023-02-19T18:58:36.692Z,81.27
2023-02-19T19:03:39.640Z,82.12
2023-02-19T19:08:42.413Z,82.93
2023-02-19T19:13:46.339Z,83.67
2023-02-19T19:18:49.493Z,83.78
2023-02-19T19:23:52.343Z,84.19
2023-02-19T19:28:55.244Z,84.44
2023-02-19T19:33:58.158Z,84.73
2023-02-19T19:39:01.001Z,84.98
2023-02-19T19:44:08.463Z,85.07
2023-02-19T19:49:12.104Z,84.90
2023-02-19T19:54:15.521Z,84.89
2023-02-19T19:59:19.063Z,84.90
2023-02-19T20:04:23.371Z,84.96
2023-02-19T20:09:29.215Z,85.32
2023-02-19T20:14:32.335Z,85.46
2023-02-19T20:19:35.231Z,85.91
2023-02-19T20:24:38.134Z,86.32
2023-02-19T20:29:44.319Z,86.68
2023-02-19T20:34:48.146Z,87.45
2023-02-19T20:39:51.045Z,88.44
2023-02-19T20:44:53.846Z,89.24
2023-02-19T20:49:57.021Z,90.15
2023-02-19T20:54:59.960Z,90.78
2023-02-19T21:00:03.784Z,91.45
2023-02-19T21:05:06.996Z,92.23
2023-02-19T21:10:10.423Z,92.69
2023-02-19T21:15:14.948Z,93.22
2023-02-19T21:20:18.160Z,94.79
2023-02-19T21:25:21.166Z,99.48
2023-02-19T21:30:24.204Z,100.00
2023-02-19T21:35:27.283Z,100.00
2023-02-19T21:40:32.134Z,100.00
2023-02-19T21:45:34.966Z,100.00
2023-02-19T21:50:37.835Z,100.00
2023-02-19T21:55:42.907Z,100.00
2023-02-19T22:00:54.249Z,100.00
2023-02-19T22:05:57.296Z,100.00
2023-02-19T22:11:00.128Z,100.00
2023-02-19T22:16:03.633Z,100.00
2023-02-19T22:21:06.666Z,100.00
2023-02-19T22:26:09.827Z,100.00
2023-02-19T22:31:14.446Z,100.00
2023-02-19T22:36:20.145Z,100.00
2023-02-19T22:41:23.707Z,100.00
2023-02-19T22:46:29.497Z,100.00
2023-02-19T22:51:33.565Z,100.00
2023-02-19T22:56:36.345Z,100.00
2023-02-19T23:01:39.274Z,100.00
2023-02-19T23:06:44.660Z,100.00
2023-02-19T23:11:47.560Z,100.00
2023-02-19T23:16:50.485Z,100.00
2023-02-19T23:21:53.345Z,100.00
2023-02-19T23:26:56.156Z,100.00
2023-02-19T23:32:00.475Z,100.00
2023-02-19T23:37:03.589Z,100.00
2023-02-19T23:42:06.392Z,100.00
2023-02-19T23:47:09.187Z,100.00
2023-02-19T23:52:12.093Z,100.00
2023-02-19T23:57:15.300Z,100.00
